Time;durP1;ratioP1;P1;durP2;ratioP2;P2;SDS_P1;SDS_P2;PMS_P1;PMS_P2;Temp;Humidity;BMP_temperature;BMP_pressure;BME280_temperature;BME280_humidity;BME280_pressure;Samples;Min_cycle;Max_cycle;Signal;HPM_P1;HPM_P2
2021/03/25 00:00:56;;;;;;;16.23;7.35;;;;;;;5.99;59.23;99336.56;5073856;28;20055;-64
2021/03/25 00:03:23;;;;;;;9.88;7.38;;;;;;;6.05;59.38;99335.97;5073990;28;20045;-64
2021/03/25 00:05:52;;;;;;;9.02;7.47;;;;;;;5.99;59.02;99333.94;5072633;28;20487;-64
2021/03/25 00:08:23;;;;;;;12.15;7.57;;;;;;;5.91;59.33;99339.91;5076126;28;20060;-64
2021/03/25 00:10:50;;;;;;;11.00;7.03;;;;;;;5.82;59.31;99339.00;5092205;28;20059;-62
2021/03/25 00:13:17;;;;;;;11.07;7.00;;;;;;;5.76;59.65;99339.63;5093122;28;20044;-63
2021/03/25 00:15:44;;;;;;;9.90;7.43;;;;;;;5.72;59.90;99333.03;5075804;28;20068;-63
2021/03/25 00:18:13;;;;;;;11.05;8.00;;;;;;;5.70;59.79;99332.31;5072516;28;20037;-64
2021/03/25 00:20:40;;;;;;;10.55;7.40;;;;;;;5.70;59.90;99332.31;5073369;28;20112;-64
2021/03/25 00:23:09;;;;;;;11.73;7.35;;;;;;;5.63;60.00;99326.88;5073341;28;20062;-64
2021/03/25 00:25:38;;;;;;;11.43;7.60;;;;;;;5.58;60.15;99331.72;5073264;28;20127;-63
2021/03/25 00:28:06;;;;;;;8.95;6.57;;;;;;;5.57;60.20;99326.63;5073453;28;20044;-63
2021/03/25 00:30:34;;;;;;;8.35;6.43;;;;;;;5.59;60.33;99320.25;5073802;28;20040;-64
2021/03/25 00:33:03;;;;;;;12.38;6.65;;;;;;;5.68;60.06;99318.53;5073009;28;20051;-64
2021/03/25 00:35:31;;;;;;;12.27;7.25;;;;;;;5.61;59.82;99309.63;5071581;28;20132;-64
2021/03/25 00:37:58;;;;;;;11.07;7.40;;;;;;;5.48;60.19;99312.59;5072800;28;20054;-64
2021/03/25 00:40:41;;;;;;;8.57;6.68;;;;;;;5.43;60.55;99313.03;5072774;28;20040;-64
2021/03/25 00:43:09;;;;;;;10.40;7.47;;;;;;;5.43;60.49;99315.66;5072806;28;20064;-64
2021/03/25 00:45:39;;;;;;;8.40;6.80;;;;;;;5.43;60.54;99313.03;5072756;28;20045;-63
2021/03/25 00:48:07;;;;;;;10.35;6.82;;;;;;;5.40;60.70;99304.66;5072558;28;20456;-64
2021/03/25 00:50:37;;;;;;;9.55;6.22;;;;;;;5.47;60.88;99303.91;5072829;28;20072;-62
2021/03/25 00:53:05;;;;;;;10.20;7.05;;;;;;;5.53;60.66;99299.03;5072461;28;20441;-63
2021/03/25 00:55:32;;;;;;;11.25;7.63;;;;;;;5.55;60.55;99302.31;5071106;28;20049;-64
2021/03/25 00:57:59;;;;;;;13.05;7.78;;;;;;;5.57;60.43;99300.41;5072395;28;20052;-64
2021/03/25 01:00:29;;;;;;;10.93;7.40;;;;;;;5.56;60.54;99304.00;5072456;28;20046;-63
2021/03/25 01:02:56;;;;;;;12.63;7.80;;;;;;;5.62;60.30;99298.97;5071125;28;20055;-64
2021/03/25 01:05:25;;;;;;;13.20;8.20;;;;;;;5.54;60.08;99298.06;5072190;28;20379;-64
2021/03/25 01:07:52;;;;;;;11.80;7.72;;;;;;;5.38;60.45;99302.16;5072336;28;20036;-64
2021/03/25 01:10:22;;;;;;;10.63;7.30;;;;;;;5.27;60.52;99299.75;5072476;28;20203;-62
2021/03/25 01:12:49;;;;;;;9.60;7.38;;;;;;;5.21;60.65;99295.09;5072761;28;20128;-63
2021/03/25 01:15:17;;;;;;;14.20;7.43;;;;;;;5.17;61.00;99299.78;5071058;28;20045;-63
2021/03/25 01:17:48;;;;;;;10.98;6.80;;;;;;;5.15;61.13;99295.69;5072003;28;20041;-63
2021/03/25 01:20:19;;;;;;;9.38;7.28;;;;;;;5.12;61.17;99295.97;5070973;28;20072;-62
2021/03/25 01:22:47;;;;;;;9.10;7.15;;;;;;;5.10;61.38;99292.66;5070937;28;20041;-62
2021/03/25 01:25:16;;;;;;;13.38;8.38;;;;;;;5.11;61.27;99286.47;5071899;28;20127;-62
2021/03/25 01:27:43;;;;;;;11.57;7.53;;;;;;;5.08;61.21;99286.75;5070918;28;20392;-59
2021/03/25 01:30:11;;;;;;;10.57;7.97;;;;;;;5.03;61.33;99291.59;5070306;28;20561;-60
2021/03/25 01:32:38;;;;;;;12.52;8.18;;;;;;;4.95;61.49;99285.28;5072135;28;21319;-59
2021/03/25 01:35:07;;;;;;;11.80;8.00;;;;;;;4.90;61.75;99279.66;5070673;28;20037;-62
2021/03/25 01:37:34;;;;;;;10.75;7.38;;;;;;;4.85;61.84;99281.03;5070486;28;20453;-61
2021/03/25 01:40:12;;;;;;;10.50;7.75;;;;;;;4.83;61.92;99277.75;5070728;28;20048;-60
2021/03/25 01:42:41;;;;;;;11.55;7.38;;;;;;;4.77;61.97;99276.53;5071980;28;20052;-60
2021/03/25 01:45:41;;;;;;;14.55;7.78;;;;;;;4.75;62.12;99268.00;5071735;28;20044;-61
2021/03/25 01:48:12;;;;;;;9.15;7.18;;;;;;;4.77;62.22;99271.28;5058401;28;20418;-61
2021/03/25 01:50:40;;;;;;;11.18;7.72;;;;;;;4.72;62.18;99265.66;5070694;28;20079;-60
2021/03/25 01:53:44;;;;;;;13.25;8.15;;;;;;;4.71;62.24;99261.41;5070615;28;20090;-60
2021/03/25 01:56:28;;;;;;;13.05;8.40;;;;;;;4.62;62.31;99255.22;5070728;28;20059;-60
2021/03/25 01:59:26;;;;;;;13.00;8.30;;;;;;;4.55;62.49;99255.94;5071860;28;20402;-59
2021/03/25 02:01:57;;;;;;;11.52;8.40;;;;;;;4.51;62.71;99258.00;5072536;28;20044;-59
2021/03/25 02:04:52;;;;;;;12.77;7.57;;;;;;;4.52;62.95;99253.59;5073731;28;20033;-60
2021/03/25 02:07:28;;;;;;;11.15;7.07;;;;;;;4.51;62.81;99249.34;5074028;28;20494;-62
2021/03/25 02:10:01;;;;;;;14.55;8.15;;;;;;;4.43;62.80;99253.50;5072279;28;20044;-64
2021/03/25 02:12:56;;;;;;;11.73;7.93;;;;;;;4.39;63.03;99249.50;5070485;28;20135;-64
2021/03/25 02:15:34;;;;;;;11.10;6.97;;;;;;;4.37;62.96;99246.22;5070620;28;20037;-64
2021/03/25 02:18:14;;;;;;;9.73;7.32;;;;;;;4.34;63.13;99240.44;5070383;28;20048;-64
2021/03/25 02:21:14;;;;;;;12.18;7.53;;;;;;;4.17;63.78;99240.19;5070211;28;20144;-64
2021/03/25 02:24:07;;;;;;;11.93;7.32;;;;;;;4.19;63.59;99247.91;5070611;28;20517;-64
2021/03/25 02:26:38;;;;;;;11.57;6.75;;;;;;;4.21;63.37;99243.38;5070318;28;20045;-64
2021/03/25 02:29:45;;;;;;;10.00;7.47;;;;;;;4.21;63.42;99243.38;5070213;28;20048;-64
2021/03/25 02:32:18;;;;;;;13.70;7.38;;;;;;;4.19;63.44;99237.44;5047848;28;20076;-64
2021/03/25 02:34:51;;;;;;;10.07;7.38;;;;;;;4.19;63.56;99238.25;5070090;28;20040;-63
2021/03/25 02:37:23;;;;;;;12.45;8.25;;;;;;;4.20;63.59;99226.00;5070339;28;20498;-64
2021/03/25 02:39:59;;;;;;;8.88;7.13;;;;;;;4.18;63.68;99238.41;5071418;28;20512;-63
2021/03/25 02:42:40;;;;;;;10.93;7.82;;;;;;;4.16;63.71;99237.69;5074352;28;20410;-63
2021/03/25 02:45:11;;;;;;;10.43;7.38;;;;;;;4.10;63.69;99233.88;5075055;28;20490;-64
2021/03/25 02:47:43;;;;;;;11.35;7.43;;;;;;;4.05;63.87;99237.88;5075152;28;20037;-63
2021/03/25 02:50:18;;;;;;;11.82;7.50;;;;;;;4.05;64.00;99243.13;5073659;28;20045;-63
2021/03/25 02:52:52;;;;;;;11.35;8.23;;;;;;;4.03;64.03;99234.56;5073877;28;20068;-63
2021/03/25 02:55:20;;;;;;;12.80;7.53;;;;;;;3.98;64.02;99235.81;5074042;28;20079;-64
2021/03/25 02:58:01;;;;;;;10.15;7.70;;;;;;;3.95;64.29;99232.66;5073372;28;20580;-62
2021/03/25 03:00:39;;;;;;;10.98;7.32;;;;;;;3.90;64.19;99233.06;5074797;28;20048;-64
2021/03/25 03:03:11;;;;;;;9.63;7.10;;;;;;;3.89;64.59;99230.59;5073528;28;20476;-62
2021/03/25 03:05:59;;;;;;;12.43;7.32;;;;;;;3.94;64.50;99231.00;5074863;28;20067;-64
2021/03/25 03:08:34;;;;;;;10.98;7.43;;;;;;;4.00;64.31;99229.59;5073269;28;20041;-64
2021/03/25 03:11:07;;;;;;;11.85;7.43;;;;;;;3.98;64.16;99227.16;5073413;28;20440;-64
2021/03/25 03:13:39;;;;;;;12.93;7.60;;;;;;;3.98;64.46;99227.97;5074773;28;20117;-64
2021/03/25 03:16:09;;;;;;;10.85;7.45;;;;;;;4.07;64.11;99233.31;5074562;28;20048;-64
2021/03/25 03:18:46;;;;;;;11.98;6.75;;;;;;;4.03;63.96;99230.16;5073094;28;20045;-62
2021/03/25 03:21:39;;;;;;;12.02;7.50;;;;;;;3.97;64.09;99228.94;5073322;28;20167;-63
2021/03/25 03:24:17;;;;;;;;;;;;;;;3.79;64.32;99235.81;5073231;28;20115;-61
2021/03/25 03:27:06;;;;;;;;;;;;;;;3.78;64.57;99226.34;5073517;28;19986;-63
2021/03/25 03:29:34;;;;;;;11.57;7.85;;;;;;;3.75;64.05;99225.78;5073013;28;19920;-62
2021/03/25 03:32:08;;;;;;;11.85;7.38;;;;;;;3.71;64.48;99230.47;5073371;28;20040;-63
2021/03/25 03:34:51;;;;;;;10.95;7.05;;;;;;;3.82;64.53;99226.88;5073846;28;20522;-63
2021/03/25 03:37:23;;;;;;;11.82;7.38;;;;;;;3.82;64.45;99227.72;5074178;28;20122;-63
2021/03/25 03:39:55;;;;;;;11.80;7.45;;;;;;;3.78;64.61;99231.56;5072760;28;20041;-62
2021/03/25 03:42:41;;;;;;;12.23;6.63;;;;;;;3.81;64.25;99223.44;5072864;28;20059;-62
2021/03/25 03:45:12;;;;;;;12.77;7.10;;;;;;;3.76;64.51;99228.28;5073980;28;20033;-63
2021/03/25 03:47:44;;;;;;;9.95;7.68;;;;;;;3.69;64.44;99227.19;5072830;28;20044;-63
2021/03/25 03:50:18;;;;;;;12.45;7.90;;;;;;;3.65;64.55;99228.41;5072656;28;20048;-63
2021/03/25 03:52:50;;;;;;;10.95;7.43;;;;;;;3.58;64.68;99235.16;5072601;28;20048;-63
2021/03/25 03:55:19;;;;;;;10.55;7.85;;;;;;;3.52;65.06;99243.56;5080956;28;20056;-63
2021/03/25 03:57:54;;;;;;;11.98;7.63;;;;;;;3.41;65.30;99234.88;5091829;28;20048;-62
2021/03/25 04:00:30;;;;;;;10.90;7.47;;;;;;;3.51;64.85;99223.59;5087018;28;20089;-63
2021/03/25 04:03:09;;;;;;;11.20;8.38;;;;;;;3.43;65.08;99225.13;5073969;28;20051;-63
2021/03/25 04:06:10;;;;;;;11.35;7.07;;;;;;;3.52;65.26;99217.41;5073516;28;20052;-63
2021/03/25 04:09:14;;;;;;;10.75;7.15;;;;;;;3.48;64.78;99225.53;5083304;28;20064;-63
2021/03/25 04:12:09;;;;;;;10.75;7.28;;;;;;;3.37;65.03;99230.88;5073434;28;20052;-63
2021/03/25 04:14:42;;;;;;;;;;;;;;;3.29;65.15;99227.28;5073867;28;20039;-61
2021/03/25 04:17:21;;;;;;;11.32;7.25;;;;;;;3.27;65.48;99227.44;5072340;28;19956;-63
2021/03/25 04:19:56;;;;;;;12.85;7.68;;;;;;;3.29;65.55;99228.13;5072755;28;20063;-61
2021/03/25 04:22:42;;;;;;;10.07;7.47;;;;;;;3.31;65.42;99228.00;5072492;28;20135;-63
2021/03/25 04:25:15;;;;;;;10.30;7.07;;;;;;;3.28;65.60;99223.84;5073270;28;20409;-63
2021/03/25 04:27:45;;;;;;;11.03;6.93;;;;;;;3.28;65.51;99229.09;5071977;28;20045;-64
2021/03/25 04:30:15;;;;;;;12.73;7.20;;;;;;;3.25;65.79;99229.34;5073379;28;20040;-63
2021/03/25 04:32:43;;;;;;;13.07;7.78;;;;;;;3.25;65.90;99231.13;5073200;28;20044;-63
2021/03/25 04:35:11;;;;;;;11.13;7.55;;;;;;;3.26;65.69;99233.59;5071498;28;20523;-64
2021/03/25 04:37:40;;;;;;;11.65;6.85;;;;;;;3.21;65.81;99230.56;5073021;28;20060;-63
2021/03/25 04:40:12;;;;;;;9.88;7.85;;;;;;;3.20;65.89;99236.78;5072699;28;20053;-63
2021/03/25 04:42:41;;;;;;;10.32;7.60;;;;;;;3.17;66.04;99231.81;5072707;28;20123;-63
2021/03/25 04:45:17;;;;;;;11.55;7.68;;;;;;;3.18;65.99;99220.38;5072671;28;20473;-63
2021/03/25 04:47:47;;;;;;;12.00;7.90;;;;;;;3.15;65.90;99220.69;5071667;28;20386;-63
2021/03/25 04:50:21;;;;;;;14.63;8.50;;;;;;;3.12;66.08;99228.78;5071500;28;20131;-63
2021/03/25 04:52:49;;;;;;;13.10;8.35;;;;;;;3.15;66.49;99226.72;5072522;28;20054;-63
2021/03/25 04:55:20;;;;;;;12.73;8.15;;;;;;;3.20;66.20;99218.47;5072401;28;20040;-63
2021/03/25 04:57:53;;;;;;;13.40;8.10;;;;;;;3.16;66.33;99219.72;5072438;28;20078;-61
2021/03/25 05:00:26;;;;;;;10.98;7.50;;;;;;;3.16;66.31;99227.56;5072442;28;20055;-63
2021/03/25 05:02:54;;;;;;;12.05;8.20;;;;;;;3.13;66.39;99222.59;5072451;28;20115;-64
2021/03/25 05:05:25;;;;;;;12.30;8.20;;;;;;;3.13;66.33;99215.56;5071599;28;20482;-64
2021/03/25 05:07:58;;;;;;;14.77;8.18;;;;;;;3.08;66.23;99225.59;5072634;28;20044;-64
2021/03/25 05:10:33;;;;;;;13.77;8.02;;;;;;;3.04;66.19;99226.00;5072717;28;20049;-64
2021/03/25 05:13:00;;;;;;;15.23;8.40;;;;;;;2.95;66.32;99218.03;5072514;28;20058;-63
2021/03/25 05:15:29;;;;;;;14.77;8.10;;;;;;;2.94;66.54;99215.56;5072221;28;20043;-64
2021/03/25 05:18:11;;;;;;;12.38;8.27;;;;;;;2.93;66.79;99226.94;5072072;28;20051;-64
2021/03/25 05:20:41;;;;;;;13.90;8.77;;;;;;;2.95;66.54;99222.41;5072207;28;20060;-64
2021/03/25 05:23:17;;;;;;;13.52;7.85;;;;;;;2.97;66.56;99230.94;5072249;28;20469;-63
2021/03/25 05:25:50;;;;;;;14.50;9.93;;;;;;;3.03;66.46;99225.19;5071809;28;20520;-64
2021/03/25 05:28:22;;;;;;;13.85;8.57;;;;;;;3.09;66.44;99216.81;5072360;28;20045;-63
2021/03/25 05:30:52;;;;;;;11.18;8.05;;;;;;;3.05;66.07;99220.66;5072219;28;20056;-64
2021/03/25 05:33:23;;;;;;;12.70;8.00;;;;;;;3.00;66.37;99222.84;5070796;28;20045;-64
2021/03/25 05:35:54;;;;;;;11.88;7.70;;;;;;;3.03;66.12;99227.81;5071841;28;20583;-63
2021/03/25 05:38:23;;;;;;;11.43;7.57;;;;;;;3.05;66.44;99228.47;5071843;28;20036;-64
2021/03/25 05:40:52;;;;;;;12.20;8.80;;;;;;;3.15;66.36;99223.28;5072178;28;20047;-64
2021/03/25 05:43:55;;;;;;;12.30;7.95;;;;;;;3.23;66.26;99228.66;5071913;28;20137;-64
2021/03/25 05:46:30;;;;;;;11.10;8.02;;;;;;;3.20;66.17;99226.31;5071697;28;20052;-64
2021/03/25 05:49:08;;;;;;;11.68;7.32;;;;;;;3.25;66.25;99218.91;5071758;28;20044;-63
2021/03/25 05:51:42;;;;;;;20.15;12.60;;;;;;;3.33;65.73;99220.84;5071893;28;20139;-63
2021/03/25 05:54:22;;;;;;;14.52;9.63;;;;;;;3.48;65.96;99224.69;5071818;28;20041;-60
2021/03/25 05:57:06;;;;;;;10.88;7.63;;;;;;;3.54;65.56;99226.75;5071751;28;20135;-63
2021/03/25 05:59:38;;;;;;;10.20;7.43;;;;;;;3.55;65.20;99228.44;5070397;28;20051;-63
2021/03/25 06:02:11;;;;;;;11.10;7.57;;;;;;;3.60;65.51;99228.00;5071726;28;20410;-63
2021/03/25 06:04:38;;;;;;;12.10;7.72;;;;;;;3.48;65.19;99229.94;5070244;28;20051;-63
2021/03/25 06:07:28;;;;;;;11.30;7.72;;;;;;;3.48;65.72;99235.97;5071793;28;20072;-63
2021/03/25 06:10:05;;;;;;;12.43;7.85;;;;;;;3.67;65.57;99239.53;5070387;28;20052;-64
2021/03/25 06:13:11;;;;;;;12.45;8.48;;;;;;;3.86;65.38;99234.31;5071700;28;20051;-63
2021/03/25 06:16:06;;;;;;;10.48;7.35;;;;;;;4.06;64.81;99242.16;5072969;28;20037;-63
2021/03/25 06:19:03;;;;;;;11.35;7.80;;;;;;;4.10;64.34;99244.34;5075463;28;20051;-64
2021/03/25 06:21:48;;;;;;;12.70;7.43;;;;;;;4.15;64.31;99247.34;5052121;28;20066;-63
2021/03/25 06:24:44;;;;;;;12.25;7.97;;;;;;;4.15;64.22;99247.34;5075396;28;20051;-64
2021/03/25 06:27:24;;;;;;;11.38;8.18;;;;;;;4.14;64.22;99252.75;5075563;28;20055;-64
2021/03/25 06:29:54;;;;;;;12.57;7.90;;;;;;;4.16;64.09;99254.25;5074035;28;20059;-64
2021/03/25 06:32:26;;;;;;;11.25;7.28;;;;;;;4.15;64.29;99255.19;5073942;28;20090;-63
2021/03/25 06:34:58;;;;;;;11.80;8.93;;;;;;;4.11;64.48;99259.06;5075079;28;20094;-63
2021/03/25 06:37:30;;;;;;;11.52;8.20;;;;;;;4.18;64.63;99264.56;5075140;28;20521;-63
2021/03/25 06:40:02;;;;;;;14.60;8.68;;;;;;;4.22;64.61;99266.75;5074992;28;20360;-64
2021/03/25 06:42:39;;;;;;;12.02;8.18;;;;;;;4.33;64.53;99260.56;5075055;28;20040;-63
2021/03/25 06:45:21;;;;;;;11.98;8.80;;;;;;;4.36;64.64;99267.28;5074990;28;20448;-63
2021/03/25 06:47:56;;;;;;;12.13;8.23;;;;;;;4.39;64.37;99278.28;5075259;28;20044;-64
2021/03/25 06:50:29;;;;;;;13.73;8.85;;;;;;;4.32;64.67;99281.63;5075208;28;20083;-63
2021/03/25 06:53:01;;;;;;;13.25;9.45;;;;;;;4.29;64.83;99284.53;5074921;28;20048;-63
2021/03/25 06:55:28;;;;;;;12.88;8.98;;;;;;;4.36;65.10;99278.56;5074982;28;20055;-63
2021/03/25 06:58:00;;;;;;;13.25;9.23;;;;;;;4.52;65.00;99285.03;5074740;28;20052;-63
2021/03/25 07:00:30;;;;;;;12.90;8.57;;;;;;;4.58;64.93;99290.53;5074783;28;20048;-63
2021/03/25 07:02:57;;;;;;;14.02;9.02;;;;;;;4.65;64.68;99286.38;5074912;28;20040;-63
2021/03/25 07:05:27;;;;;;;10.70;8.52;;;;;;;4.62;64.94;99289.28;5074770;28;20507;-63
2021/03/25 07:08:02;;;;;;;13.52;8.98;;;;;;;4.74;65.00;99294.34;5074400;28;20040;-63
2021/03/25 07:10:29;;;;;;;11.80;8.23;;;;;;;4.80;64.68;99301.63;5073295;28;20051;-63
2021/03/25 07:13:04;;;;;;;15.15;9.15;;;;;;;4.78;64.81;99301.75;5074684;28;20047;-63
2021/03/25 07:15:42;;;;;;;14.68;10.18;;;;;;;4.90;64.82;99302.41;5074383;28;20044;-63
2021/03/25 07:18:24;;;;;;;14.10;9.20;;;;;;;4.88;64.96;99304.34;5074451;28;20033;-63
2021/03/25 07:21:21;;;;;;;20.40;10.30;;;;;;;4.93;65.10;99305.53;5074433;28;20148;-62
2021/03/25 07:23:48;;;;;;;15.57;9.98;;;;;;;4.98;65.01;99307.75;5074364;28;20115;-62
2021/03/25 07:26:20;;;;;;;15.82;10.48;;;;;;;5.11;64.73;99315.28;5074253;28;20040;-63
2021/03/25 07:28:59;;;;;;;15.15;9.60;;;;;;;5.17;64.87;99314.69;5073473;28;20116;-62
2021/03/25 07:31:35;;;;;;;14.75;10.60;;;;;;;5.32;64.87;99315.88;5074259;28;20040;-63
2021/03/25 07:34:03;;;;;;;18.88;11.52;;;;;;;5.39;64.66;99311.69;5074213;28;20122;-63
2021/03/25 07:36:30;;;;;;;14.60;10.40;;;;;;;5.45;64.52;99321.56;5074122;28;20044;-61
2021/03/25 07:39:04;;;;;;;18.23;11.05;;;;;;;5.61;64.28;99313.06;5091713;28;20055;-62
2021/03/25 07:41:32;;;;;;;;;;;;;;;5.78;64.23;99311.41;5092761;28;20041;-62
2021/03/25 07:44:03;;;;;;;18.90;11.45;;;;;;;5.88;63.77;99314.00;5073615;28;19928;-63
2021/03/25 07:46:35;;;;;;;21.40;11.30;;;;;;;6.00;63.53;99310.19;5074113;28;20431;-63
2021/03/25 07:49:14;;;;;;;19.95;12.02;;;;;;;6.23;63.57;99307.09;5072765;28;20517;-62
2021/03/25 07:51:52;;;;;;;18.88;11.48;;;;;;;6.39;63.10;99315.09;5073994;28;20044;-63
2021/03/25 07:54:26;;;;;;;19.02;13.27;;;;;;;6.54;62.89;99310.94;5073718;28;20041;-63
2021/03/25 07:57:02;;;;;;;17.40;12.05;;;;;;;6.59;62.69;99316.53;5073702;28;20045;-63
2021/03/25 07:59:33;;;;;;;18.92;12.25;;;;;;;6.77;62.58;99313.84;5072164;28;20494;-63
2021/03/25 08:02:00;;;;;;;19.33;12.35;;;;;;;6.91;61.97;99315.91;5073709;28;20040;-63
2021/03/25 08:04:30;;;;;;;17.42;12.13;;;;;;;7.05;61.57;99309.22;5072055;28;20052;-62
2021/03/25 08:07:06;;;;;;;21.30;13.27;;;;;;;7.22;61.39;99318.00;5073710;28;20049;-63
2021/03/25 08:09:50;;;;;;;21.15;13.18;;;;;;;7.37;61.12;99316.41;5073900;28;20053;-61
2021/03/25 08:12:27;;;;;;;22.38;11.68;;;;;;;7.52;60.66;99314.00;5074706;28;20041;-62
2021/03/25 08:15:25;;;;;;;17.42;12.32;;;;;;;7.70;60.37;99317.31;5072090;28;20139;-63
2021/03/25 08:18:07;;;;;;;21.67;12.05;;;;;;;7.84;59.97;99320.34;5073103;28;20048;-63
2021/03/25 08:20:43;;;;;;;18.52;12.73;;;;;;;8.04;59.78;99311.13;5073057;28;20044;-63
2021/03/25 08:23:28;;;;;;;19.50;12.90;;;;;;;8.27;59.36;99306.03;5072157;28;20425;-63
2021/03/25 08:26:04;;;;;;;18.48;12.20;;;;;;;8.52;59.03;99306.84;5072856;28;20071;-61
2021/03/25 08:28:43;;;;;;;22.15;12.95;;;;;;;8.72;58.46;99309.13;5072954;28;20414;-62
2021/03/25 08:31:27;;;;;;;22.73;13.30;;;;;;;8.95;58.04;99296.88;5073237;28;20044;-63
2021/03/25 08:34:11;;;;;;;16.90;11.80;;;;;;;9.17;57.49;99296.13;5072969;28;20052;-62
2021/03/25 08:36:52;;;;;;;19.40;12.63;;;;;;;9.32;57.26;99298.06;5073305;28;20417;-63
2021/03/25 08:39:31;;;;;;;19.88;11.93;;;;;;;9.51;56.14;99299.41;5071912;28;20439;-63
2021/03/25 08:42:03;;;;;;;18.08;11.40;;;;;;;9.63;56.22;99300.66;5072703;28;20047;-63
2021/03/25 08:44:35;;;;;;;21.67;12.00;;;;;;;9.77;55.50;99301.75;5072540;28;20040;-62
2021/03/25 08:47:12;;;;;;;18.95;11.23;;;;;;;9.95;54.71;99298.81;5073010;28;20399;-63
2021/03/25 08:49:44;;;;;;;22.73;11.93;;;;;;;10.05;54.25;99296.78;5072593;28;20457;-63
2021/03/25 08:52:15;;;;;;;23.65;12.48;;;;;;;10.15;54.12;99295.50;5072891;28;20127;-63
2021/03/25 08:54:46;;;;;;;20.83;12.02;;;;;;;10.28;53.73;99292.28;5072578;28;20505;-61
2021/03/25 08:57:17;;;;;;;20.52;12.27;;;;;;;10.48;53.48;99294.44;5072544;28;20056;-63
2021/03/25 08:59:53;;;;;;;21.02;11.57;;;;;;;10.57;53.04;99296.00;5072531;28;20055;-63
2021/03/25 09:02:27;;;;;;;20.67;12.95;;;;;;;10.60;53.10;99299.09;5072476;28;20041;-63
2021/03/25 09:05:02;;;;;;;21.85;13.98;;;;;;;10.69;52.98;99291.91;5072320;28;20033;-61
2021/03/25 09:07:29;;;;;;;31.98;21.45;;;;;;;10.82;52.88;99296.59;5072494;28;20055;-64
2021/03/25 09:10:03;;;;;;;25.95;14.88;;;;;;;10.88;52.37;99307.25;5072590;28;20048;-61
2021/03/25 09:12:32;;;;;;;25.25;14.15;;;;;;;10.95;52.55;99301.25;5073133;28;20128;-62
2021/03/25 09:15:00;;;;;;;26.92;16.45;;;;;;;11.10;52.29;99300.25;5072082;28;20047;-62
2021/03/25 09:17:37;;;;;;;29.02;17.50;;;;;;;11.16;51.72;99296.84;5072087;28;20044;-63
2021/03/25 09:20:11;;;;;;;29.23;17.70;;;;;;;11.31;51.75;99296.00;5072383;28;20048;-62
2021/03/25 09:22:44;;;;;;;29.05;17.95;;;;;;;11.45;51.59;99299.63;5072141;28;20458;-62
2021/03/25 09:25:39;;;;;;;26.45;18.70;;;;;;;11.68;51.20;99295.00;5072694;28;20506;-63
2021/03/25 09:28:18;;;;;;;27.80;18.40;;;;;;;11.77;51.32;99301.81;5072841;28;20049;-63
2021/03/25 09:31:04;;;;;;;38.53;22.48;;;;;;;11.85;50.97;99296.44;5073923;28;20060;-62
2021/03/25 09:33:51;;;;;;;34.55;22.30;;;;;;;11.96;50.98;99295.13;5072637;28;20056;-63
2021/03/25 09:36:43;;;;;;;33.72;21.60;;;;;;;12.00;50.49;99299.03;5070582;28;20135;-64
2021/03/25 09:39:20;;;;;;;36.08;21.83;;;;;;;12.21;50.45;99294.72;5071846;28;20032;-63
2021/03/25 09:41:47;;;;;;;32.10;20.17;;;;;;;12.36;50.20;99290.16;5071918;28;20045;-64
2021/03/25 09:44:26;;;;;;;35.92;22.92;;;;;;;12.54;49.96;99295.00;5071835;28;20131;-62
2021/03/25 09:47:12;;;;;;;40.08;23.90;;;;;;;12.54;49.28;99290.50;5071850;28;20048;-61
2021/03/25 09:49:43;;;;;;;37.10;22.42;;;;;;;12.46;49.19;99292.47;5070855;28;20143;-63
2021/03/25 09:52:29;;;;;;;34.60;21.83;;;;;;;12.40;48.98;99294.06;5078570;28;20409;-62
2021/03/25 09:55:15;;;;;;;33.70;22.17;;;;;;;12.45;49.25;99291.66;5076273;28;20061;-62
2021/03/25 09:57:51;;;;;;;37.70;22.73;;;;;;;12.51;49.18;99290.06;5078451;28;20078;-62
2021/03/25 10:00:52;;;;;;;36.40;22.42;;;;;;;12.61;49.00;99293.19;5078344;28;20083;-62
2021/03/25 10:04:03;;;;;;;32.53;22.25;;;;;;;12.72;48.73;99286.53;5078437;28;20045;-63
2021/03/25 10:06:49;;;;;;;41.25;22.75;;;;;;;12.80;48.83;99294.34;5078374;28;20076;-63
2021/03/25 10:09:15;;;;;;;39.53;23.20;;;;;;;12.83;49.00;99297.44;5078368;28;20040;-62
2021/03/25 10:11:55;;;;;;;35.88;23.77;;;;;;;12.81;48.41;99291.47;5078150;28;20049;-63
2021/03/25 10:14:46;;;;;;;36.38;24.20;;;;;;;12.85;48.52;99298.03;5078242;28;20410;-63
2021/03/25 10:17:43;;;;;;;39.10;23.00;;;;;;;12.86;48.06;99298.88;5078285;28;20044;-63
2021/03/25 10:20:14;;;;;;;35.83;22.13;;;;;;;12.87;48.45;99289.91;5074002;28;20068;-63
2021/03/25 10:22:41;;;;;;;34.90;21.55;;;;;;;12.90;48.20;99292.16;5078476;28;20054;-63
2021/03/25 10:25:08;;;;;;;40.58;23.00;;;;;;;12.94;48.40;99279.31;5078043;28;20043;-62
2021/03/25 10:27:39;;;;;;;35.67;22.08;;;;;;;12.98;48.40;99281.41;5078219;28;20052;-63
2021/03/25 10:30:23;;;;;;;39.40;23.27;;;;;;;13.11;48.27;99288.59;5077135;28;20351;-63
2021/03/25 10:32:50;;;;;;;39.08;23.98;;;;;;;13.17;47.80;99287.78;5076149;28;20048;-64
2021/03/25 10:35:22;;;;;;;38.53;23.35;;;;;;;13.32;47.74;99293.00;5078029;28;20124;-64
2021/03/25 10:37:52;;;;;;;44.45;26.35;;;;;;;13.34;47.39;99288.31;5078087;28;20051;-64
2021/03/25 10:40:22;;;;;;;39.80;24.33;;;;;;;13.43;47.47;99292.44;5076807;28;20040;-63
2021/03/25 10:43:00;;;;;;;57.00;36.30;;;;;;;13.50;46.98;99289.78;5078288;28;20036;-63
2021/03/25 10:45:36;;;;;;;38.50;25.38;;;;;;;13.47;46.49;99290.19;5078039;28;20048;-62
2021/03/25 10:48:21;;;;;;;33.58;21.13;;;;;;;13.62;46.25;99291.66;5078053;28;20071;-63
2021/03/25 10:50:53;;;;;;;33.10;21.25;;;;;;;13.60;45.59;99295.56;5078162;28;20651;-64
2021/03/25 10:53:25;;;;;;;37.63;21.80;;;;;;;13.59;45.70;99284.13;5078032;28;20119;-64
2021/03/25 10:56:01;;;;;;;32.13;20.23;;;;;;;13.66;45.56;99281.47;5077935;28;20041;-64
2021/03/25 10:58:32;;;;;;;40.22;22.48;;;;;;;13.78;45.45;99276.38;5077900;28;20041;-64
2021/03/25 11:01:05;;;;;;;33.53;22.20;;;;;;;13.95;44.91;99287.44;5077904;28;20051;-64
2021/03/25 11:03:35;;;;;;;31.60;21.13;;;;;;;13.93;45.55;99282.34;5073961;28;20048;-65
2021/03/25 11:06:05;;;;;;;32.92;20.67;;;;;;;14.17;45.05;99277.47;5074502;28;20037;-65
2021/03/25 11:08:36;;;;;;;33.90;20.73;;;;;;;14.45;45.10;99271.91;5074947;28;20052;-64
2021/03/25 11:11:09;;;;;;;32.33;20.90;;;;;;;14.61;44.37;99277.69;5074802;28;20052;-63
2021/03/25 11:13:35;;;;;;;29.20;18.83;;;;;;;14.54;43.77;99271.53;5073361;28;20503;-64
2021/03/25 11:16:05;;;;;;;27.48;18.83;;;;;;;14.69;43.51;99275.78;5074605;28;20399;-64
2021/03/25 11:18:44;;;;;;;31.83;20.30;;;;;;;14.79;42.69;99278.88;5074663;28;20082;-65
2021/03/25 11:21:24;;;;;;;28.88;18.95;;;;;;;14.76;42.49;99277.44;5077908;28;20037;-62
2021/03/25 11:24:05;;;;;;;28.45;18.35;;;;;;;14.67;43.03;99273.34;5086203;28;20057;-63
2021/03/25 11:26:32;;;;;;;29.05;18.00;;;;;;;14.65;42.98;99274.56;5083776;28;20045;-64
2021/03/25 11:29:01;;;;;;;30.90;19.15;;;;;;;14.73;42.62;99280.50;5074302;28;20047;-65
2021/03/25 11:31:31;;;;;;;30.05;19.48;;;;;;;14.82;42.87;99273.94;5074398;28;20037;-65
2021/03/25 11:33:58;;;;;;;29.80;18.42;;;;;;;15.07;42.40;99273.25;5074216;28;20055;-63
2021/03/25 11:36:36;;;;;;;29.15;18.70;;;;;;;15.17;42.47;99264.81;5074010;28;20068;-65
2021/03/25 11:39:16;;;;;;;23.98;16.70;;;;;;;15.13;41.48;99252.94;5074212;28;20048;-65
2021/03/25 11:41:45;;;;;;;29.67;17.40;;;;;;;15.07;42.00;99259.94;5074500;28;20413;-65
2021/03/25 11:44:32;;;;;;;25.85;18.13;;;;;;;15.23;42.23;99253.34;5073942;28;20043;-65
2021/03/25 11:47:21;;;;;;;26.52;17.88;;;;;;;15.25;41.68;99262.72;5072811;28;20064;-64
2021/03/25 11:49:48;;;;;;;27.35;18.23;;;;;;;15.10;41.73;99260.34;5073939;28;20128;-65
2021/03/25 11:52:15;;;;;;;33.83;19.40;;;;;;;15.17;41.81;99257.66;5073958;28;20047;-65
2021/03/25 11:54:44;;;;;;;24.05;17.08;;;;;;;15.19;41.71;99254.78;5073868;28;20123;-65
2021/03/25 11:57:25;;;;;;;28.80;18.00;;;;;;;15.27;41.22;99257.22;5074028;28;20502;-64
2021/03/25 12:00:09;;;;;;;24.13;17.58;;;;;;;15.14;41.53;99250.06;5074325;28;20048;-65
2021/03/25 12:02:41;;;;;;;26.73;17.90;;;;;;;15.11;41.59;99261.16;5074382;28;20064;-63
2021/03/25 12:05:41;;;;;;;27.38;16.80;;;;;;;15.30;41.44;99248.78;5074279;28;20041;-65
2021/03/25 12:08:32;;;;;;;28.67;18.48;;;;;;;15.39;41.53;99255.50;5074025;28;20046;-65